createdAt,value
2018-11-14T00:00:43.238Z,3.80
2018-11-14T00:03:12.102Z,3.87
2018-11-14T00:05:40.602Z,3.83
2018-11-14T00:08:09.421Z,3.95
2018-11-14T00:10:38.261Z,3.58
2018-11-14T00:13:07.753Z,3.90
2018-11-14T00:15:36.272Z,3.25
2018-11-14T00:18:05.101Z,3.58
2018-11-14T00:20:33.946Z,4.55
2018-11-14T00:23:02.806Z,3.70
2018-11-14T00:25:31.704Z,3.92
2018-11-14T00:28:00.591Z,3.17
2018-11-14T00:30:29.250Z,3.52
2018-11-14T00:32:58.087Z,2.90
2018-11-14T00:35:26.615Z,3.42
2018-11-14T00:37:55.609Z,3.90
2018-11-14T00:40:24.441Z,4.12
2018-11-14T00:42:52.921Z,3.75
2018-11-14T00:45:22.252Z,3.55
2018-11-14T00:47:51.815Z,3.40
2018-11-14T00:50:21.212Z,3.77
2018-11-14T00:52:50.053Z,3.27
2018-11-14T00:55:21.245Z,3.20
2018-11-14T00:57:51.298Z,3.05
2018-11-14T01:00:22.214Z,2.90
2018-11-14T01:02:56.935Z,3.75
2018-11-14T01:05:26.493Z,2.62
2018-11-14T01:08:02.971Z,4.15
2018-11-14T01:10:32.779Z,3.40
2018-11-14T01:13:03.036Z,3.62
2018-11-14T01:15:38.655Z,3.42
2018-11-14T01:18:08.149Z,3.45
2018-11-14T01:20:37.255Z,3.45
2018-11-14T01:23:07.565Z,3.85
2018-11-14T01:25:38.425Z,3.25
2018-11-14T01:28:08.119Z,4.00
2018-11-14T01:30:55.667Z,3.10
2018-11-14T01:52:51.902Z,3.70
2018-11-14T01:58:17.628Z,3.87
2018-11-14T02:03:40.746Z,3.58
2018-11-14T02:06:14.122Z,3.10
2018-11-14T02:11:28.362Z,3.08
2018-11-14T02:14:00.473Z,3.27
2018-11-14T02:16:36.013Z,4.00
2018-11-14T02:19:07.587Z,3.67
2018-11-14T02:21:37.846Z,4.60
2018-11-14T02:24:13.455Z,3.60
2018-11-14T02:26:43.609Z,3.33
2018-11-14T02:31:46.308Z,3.42
2018-11-14T02:37:15.473Z,4.08
2018-11-14T02:39:44.145Z,3.80
2018-11-14T02:42:14.131Z,4.12
2018-11-14T02:44:42.817Z,4.37
2018-11-14T02:47:16.041Z,3.55
2018-11-14T02:49:45.027Z,3.95
2018-11-14T02:52:17.122Z,4.20
2018-11-14T02:54:45.881Z,4.08
2018-11-14T02:57:17.029Z,4.05
2018-11-14T02:59:47.995Z,4.30
2018-11-14T03:02:26.244Z,3.87
2018-11-14T03:04:58.856Z,5.25
2018-11-14T03:10:30.959Z,4.50
2018-11-14T03:13:00.775Z,3.62
2018-11-14T03:15:45.890Z,4.45
2018-11-14T03:18:34.042Z,3.72
2018-11-14T03:21:12.794Z,4.60
2018-11-14T03:23:52.155Z,4.67
2018-11-14T03:26:24.610Z,3.52
2018-11-14T03:28:56.228Z,4.55
2018-11-14T03:31:26.341Z,3.30
2018-11-14T03:33:58.125Z,4.55
2018-11-14T03:36:28.957Z,5.03
2018-11-14T03:39:17.341Z,4.05
2018-11-14T03:41:46.062Z,3.92
2018-11-14T03:44:22.843Z,3.90
2018-11-14T03:46:59.435Z,3.77
2018-11-14T03:49:37.831Z,4.70
2018-11-14T03:55:11.946Z,4.08
2018-11-14T04:09:23.124Z,4.40
2018-11-14T04:12:09.464Z,4.67
2018-11-14T04:14:43.030Z,3.80
2018-11-14T04:17:19.398Z,4.08
2018-11-14T04:19:48.538Z,4.40
2018-11-14T04:22:21.559Z,3.47
2018-11-14T04:24:51.259Z,3.83
2018-11-14T04:27:26.499Z,4.15
2018-11-14T04:29:56.643Z,3.75
2018-11-14T04:35:09.341Z,3.92
2018-11-14T04:37:39.812Z,4.35
2018-11-14T04:40:11.660Z,3.87
2018-11-14T04:42:40.432Z,3.72
2018-11-14T04:45:11.728Z,3.52
2018-11-14T04:47:41.397Z,4.30
2018-11-14T04:50:12.848Z,4.55
2018-11-14T04:52:42.396Z,3.80
2018-11-14T04:55:13.603Z,4.20
2018-11-14T04:57:45.056Z,4.22
2018-11-14T05:03:26.322Z,4.50
2018-11-14T05:37:41.795Z,4.20
2018-11-14T05:40:18.228Z,5.00
2018-11-14T05:45:51.047Z,4.72
2018-11-14T05:48:26.818Z,3.80
2018-11-14T05:50:57.607Z,3.80
2018-11-14T05:53:29.050Z,3.70
2018-11-14T05:55:58.818Z,3.80
2018-11-14T05:58:27.794Z,4.30
2018-11-14T06:01:01.683Z,3.60
2018-11-14T06:03:31.903Z,4.85
2018-11-14T06:06:00.797Z,3.47
2018-11-14T06:08:30.450Z,5.42
2018-11-14T06:10:58.978Z,4.28
2018-11-14T06:13:27.837Z,4.15
2018-11-14T06:15:57.380Z,5.30
2018-11-14T06:18:26.869Z,3.50
2018-11-14T06:20:55.726Z,3.15
2018-11-14T06:26:00.716Z,3.80
2018-11-14T06:28:31.361Z,3.45
2018-11-14T06:31:01.966Z,4.10
2018-11-14T06:33:31.266Z,3.60
2018-11-14T06:36:00.191Z,4.33
2018-11-14T06:38:29.045Z,4.95
2018-11-14T06:41:03.576Z,4.25
2018-11-14T06:43:32.525Z,4.12
2018-11-14T06:46:01.096Z,4.53
2018-11-14T06:48:29.589Z,3.50
2018-11-14T06:50:58.742Z,4.53
2018-11-14T06:53:27.665Z,3.60
2018-11-14T06:58:50.463Z,3.65
2018-11-14T07:01:20.021Z,3.80
2018-11-14T07:03:48.635Z,3.92
2018-11-14T07:06:23.180Z,4.00
2018-11-14T07:08:51.984Z,3.52
2018-11-14T07:11:22.799Z,5.03
2018-11-14T07:13:52.731Z,4.47
2018-11-14T07:16:21.428Z,4.47
2018-11-14T07:18:50.065Z,4.40
2018-11-14T07:21:18.702Z,4.35
2018-11-14T07:23:49.020Z,4.47
2018-11-14T07:26:17.844Z,4.58
2018-11-14T07:28:46.543Z,4.42
2018-11-14T07:31:15.838Z,4.53
2018-11-14T07:33:45.719Z,4.85
2018-11-14T07:36:17.558Z,5.30
2018-11-14T07:38:49.096Z,4.65
2018-11-14T07:41:24.439Z,5.12
2018-11-14T07:43:53.777Z,4.70
2018-11-14T07:46:23.012Z,4.30
2018-11-14T07:48:52.995Z,4.75
2018-11-14T07:51:23.368Z,4.80
2018-11-14T07:53:53.548Z,5.00
2018-11-14T07:56:22.880Z,4.90
2018-11-14T07:58:51.591Z,4.00
2018-11-14T08:01:20.226Z,4.05
2018-11-14T08:03:49.647Z,4.42
2018-11-14T08:06:18.718Z,4.78
2018-11-14T08:08:48.139Z,4.47
2018-11-14T08:11:17.571Z,4.92
2018-11-14T08:13:48.034Z,6.30
2018-11-14T08:16:17.274Z,5.08
2018-11-14T08:18:46.603Z,4.80
2018-11-14T08:21:17.076Z,4.55
2018-11-14T08:23:46.097Z,5.60
2018-11-14T08:26:14.886Z,5.22
2018-11-14T08:28:44.326Z,5.85
2018-11-14T08:31:15.715Z,4.55
2018-11-14T08:33:44.825Z,4.50
2018-11-14T08:36:13.592Z,5.72
2018-11-14T08:38:43.598Z,4.90
2018-11-14T08:41:45.394Z,4.67
2018-11-14T08:44:14.484Z,4.87
2018-11-14T08:46:44.176Z,4.65
2018-11-14T08:49:15.617Z,4.47
2018-11-14T08:51:45.212Z,5.25
2018-11-14T08:54:15.839Z,4.40
2018-11-14T08:56:45.807Z,4.53
2018-11-14T08:59:15.452Z,5.62
2018-11-14T09:01:45.846Z,5.45
2018-11-14T09:04:17.126Z,5.62
2018-11-14T09:06:48.642Z,5.00
2018-11-14T09:09:19.916Z,4.15
2018-11-14T09:11:50.514Z,4.55
2018-11-14T09:14:22.539Z,4.75
2018-11-14T09:16:52.648Z,4.95
2018-11-14T09:19:22.849Z,4.35
2018-11-14T09:21:51.611Z,3.70
2018-11-14T09:24:26.075Z,4.15
2018-11-14T09:26:55.928Z,4.10
2018-11-14T09:29:25.549Z,3.72
2018-11-14T09:34:30.567Z,4.58
2018-11-14T09:37:02.380Z,4.55
2018-11-14T09:39:31.885Z,4.45
2018-11-14T09:42:02.475Z,4.05
2018-11-14T09:44:33.178Z,4.42
2018-11-14T09:47:03.266Z,4.45
2018-11-14T09:49:34.620Z,4.47
2018-11-14T09:52:06.432Z,4.15
2018-11-14T09:54:35.166Z,5.25
2018-11-14T09:57:07.011Z,5.70
2018-11-14T09:59:36.217Z,4.85
2018-11-14T10:02:07.327Z,5.70
2018-11-14T10:04:37.001Z,6.42
2018-11-14T10:07:08.174Z,3.75
2018-11-14T10:12:22.232Z,5.03
2018-11-14T10:14:52.659Z,4.50
2018-11-14T10:17:21.914Z,4.60
2018-11-14T10:22:42.808Z,4.60
2018-11-14T10:25:31.055Z,4.80
2018-11-14T10:28:13.284Z,4.33
2018-11-14T10:30:56.356Z,4.75
2018-11-14T10:36:36.829Z,5.08
2018-11-14T10:39:19.736Z,3.80
2018-11-14T10:41:59.957Z,4.20
2018-11-14T10:53:39.700Z,3.00
2018-11-14T11:10:47.974Z,3.98
2018-11-14T11:20:23.919Z,3.90
2018-11-14T11:29:06.495Z,4.65
2018-11-14T11:31:44.115Z,4.17
2018-11-14T11:34:19.595Z,4.15
2018-11-14T11:39:40.269Z,3.72
2018-11-14T11:42:16.167Z,4.72
2018-11-14T11:44:55.121Z,4.50
2018-11-14T11:50:20.833Z,4.62
2018-11-14T11:58:42.253Z,4.25
2018-11-14T12:07:15.458Z,3.75
2018-11-14T12:50:10.723Z,3.42
2018-11-14T12:55:47.703Z,3.45
2018-11-14T13:02:16.694Z,3.52
2018-11-14T13:05:14.452Z,3.20
2018-11-14T13:08:10.243Z,2.90
2018-11-14T13:16:53.937Z,3.20
2018-11-14T13:19:40.145Z,3.00
2018-11-14T14:23:42.164Z,3.20
2018-11-14T15:26:15.691Z,5.42
2018-11-14T15:36:37.614Z,5.83
2018-11-14T15:42:32.011Z,6.08
2018-11-14T16:19:21.434Z,6.65
2018-11-14T16:21:58.929Z,6.35
2018-11-14T16:24:28.408Z,6.90
2018-11-14T16:27:02.328Z,7.58
2018-11-14T16:29:32.508Z,6.20
2018-11-14T16:32:02.482Z,6.78
2018-11-14T16:34:31.567Z,7.00
2018-11-14T16:37:02.840Z,7.08
2018-11-14T16:39:32.814Z,6.28
2018-11-14T16:42:12.192Z,8.78
2018-11-14T16:44:40.821Z,7.55
2018-11-14T16:47:10.229Z,7.17
2018-11-14T16:49:39.834Z,6.10
2018-11-14T16:52:08.623Z,6.00
2018-11-14T16:54:37.955Z,6.25
2018-11-14T16:57:08.128Z,5.80
2018-11-14T16:59:45.281Z,7.15
2018-11-14T17:02:13.829Z,4.33
2018-11-14T17:04:42.728Z,5.97
2018-11-14T17:07:12.814Z,5.67
2018-11-14T17:09:41.540Z,5.95
2018-11-14T17:12:12.012Z,5.60
2018-11-14T18:00:05.220Z,10.10
2018-11-14T18:02:48.595Z,10.35
2018-11-14T18:08:19.003Z,11.48
